Cessnock, New South Wales

8:25 AM AEDT on November 24, 2014 (GMT +1100)
Aberdare | Change Station
CLOSE
Current Station
Personal Weather Station
Location: Cessnock, N.S.W.
Elevation: 290 ft
Nearby Weather Stations

Elev 290 ft 32.84 °S, 151.37 °E | Updated 6 seconds ago

Mostly Cloudy
Mostly Cloudy
81.9 °F
Feels Like 85 °F
N
1.0
Wind Variable Wind from East
Gusts 1.0 mph

Today
High -- | Low -- °F
--% Chance of Precip.
Yesterday
High -- | Low -- °F
Precip. -- in
5:41 AM 7:41 PM
New Moon, 2% visible
Pressure 29.95 in
Visibility 6.2 miles
Clouds Mostly Cloudy 1300 ft
Heat Index 85 °F
Dew Point 69 °F
Humidity 65%
Rainfall 0.00 in
Snow Depth Not available.
UV 1 out of 12
Pollen Not available.
Air Quality Not available.
Flu Activity Not available.
SPECI YWLM 232100Z 21006KT 9999 BKN013 23/21 Q1014 FM2200 15014KT 9999 SCT012

More Conditions Fewer Conditions

Pressure 29.95 in
Visibility 6.2 miles
Clouds Mostly Cloudy 1300 ft
Heat Index 85 °F
Dew Point 69 °F
Humidity 65%
Rainfall 0.00 in
Snow Depth Not available.
UV 1 out of 12
Pollen Not available.
Air Quality Not available.
Flu Activity Not available.
SPECI YWLM 232100Z 21006KT 9999 BKN013 23/21 Q1014 FM2200 15014KT 9999 SCT012

More Conditions Fewer Conditions

10-Day Weather Forecast

Almanac

Astronomy

Nov. 24, 2014 Rise Set
Actual Time
Civil Twilight
Nautical Twilight
Astronomical Twilight
Moon
Length of Visible Light
Length of Day
Tomorrow will be .
, % of the Moon is Illuminated

Today's Extremes

Country Highs Country Lows

Community

WunderPhotos

Upload Photos

1,773,181 photos uploaded!

WunderBlogs® & News

Nearby

Air Quality

  Air Quality AQ Index Pollutant
Not available.

Snow Depth

Station Depth Elevation

Earthquake Activity

City Distance Mag. Time & Date
Minimum magnitude displayed is 2.5.

Coastal Water Temperatures

Place Temperature

Nearby Weather Stations